createdAt,value
2019-02-15T00:00:56.692Z,102723.26
2019-02-15T00:03:28.460Z,102722.16
2019-02-15T00:06:02.729Z,102720.29
2019-02-15T00:08:36.621Z,102722.36
2019-02-15T00:11:05.523Z,102719.66
2019-02-15T00:13:36.113Z,102719.07
2019-02-15T00:16:08.600Z,102719.84
2019-02-15T00:19:14.540Z,102716.86
2019-02-15T00:21:51.343Z,102719.48
2019-02-15T00:24:26.137Z,102717.29
2019-02-15T00:26:59.451Z,102712.38
2019-02-15T00:29:28.344Z,102709.05
2019-02-15T00:32:07.960Z,102711.22
2019-02-15T00:34:38.431Z,102707.57
2019-02-15T00:37:09.116Z,102711.68
2019-02-15T00:39:42.462Z,102708.14
2019-02-15T00:42:14.826Z,102706.61
2019-02-15T00:44:43.725Z,102701.57
2019-02-15T00:47:31.903Z,102704.27
2019-02-15T00:50:26.335Z,102708.37
2019-02-15T00:53:09.631Z,102709.38
2019-02-15T00:56:15.521Z,102714.68
2019-02-15T00:58:58.372Z,102713.43
2019-02-15T01:01:45.707Z,102717.48
2019-02-15T01:04:21.035Z,102711.62
2019-02-15T01:07:10.749Z,102709.89
2019-02-15T01:10:01.635Z,102710.23
2019-02-15T01:12:36.027Z,102704.02
2019-02-15T01:15:10.695Z,102709.17
2019-02-15T01:17:39.651Z,102706.67
2019-02-15T01:20:08.620Z,102707.26
2019-02-15T01:22:40.590Z,102705.05
2019-02-15T01:25:13.931Z,102706.44
2019-02-15T01:28:05.412Z,102710.23
2019-02-15T01:30:56.243Z,102705.13
2019-02-15T01:34:04.439Z,102697.11
2019-02-15T01:36:52.206Z,102699.07
2019-02-15T01:39:37.977Z,102697.14
2019-02-15T01:42:28.519Z,102695.17
2019-02-15T01:45:12.122Z,102692.39
2019-02-15T01:47:46.780Z,102700.18
2019-02-15T01:50:17.265Z,102700.66
2019-02-15T01:52:49.273Z,102695.99
2019-02-15T01:55:20.168Z,102698.88
2019-02-15T01:57:57.089Z,102694.16
2019-02-15T02:00:29.330Z,102692.97
2019-02-15T02:03:00.008Z,102686.18
2019-02-15T02:05:32.026Z,102692.97
2019-02-15T02:08:02.438Z,102689.35
2019-02-15T02:10:33.048Z,102684.50
2019-02-15T02:13:03.199Z,102684.89
2019-02-15T02:15:34.498Z,102683.34
2019-02-15T02:18:03.817Z,102678.34
2019-02-15T02:20:38.331Z,102675.70
2019-02-15T02:23:10.364Z,102675.89
2019-02-15T02:25:41.516Z,102675.20
2019-02-15T02:28:11.101Z,102676.30
2019-02-15T02:30:44.577Z,102668.72
2019-02-15T02:33:13.355Z,102665.83
2019-02-15T02:35:44.349Z,102666.73
2019-02-15T02:38:13.313Z,102665.67
2019-02-15T02:41:03.117Z,102668.06
2019-02-15T02:43:33.577Z,102663.45
2019-02-15T02:46:05.658Z,102657.30
2019-02-15T02:48:36.975Z,102667.13
2019-02-15T02:51:06.107Z,102670.73
2019-02-15T02:53:35.035Z,102665.20
2019-02-15T02:56:08.819Z,102661.30
2019-02-15T02:58:40.580Z,102662.02
2019-02-15T03:01:11.617Z,102663.03
2019-02-15T03:03:44.568Z,102654.94
2019-02-15T03:06:16.562Z,102659.98
2019-02-15T03:08:50.187Z,102652.48
2019-02-15T03:11:22.318Z,102650.08
2019-02-15T03:13:54.391Z,102650.23
2019-02-15T03:16:26.450Z,102655.66
2019-02-15T03:18:55.349Z,102644.94
2019-02-15T03:21:25.803Z,102653.70
2019-02-15T03:23:56.518Z,102652.59
2019-02-15T03:26:30.651Z,102650.77
2019-02-15T03:28:59.893Z,102648.32
2019-02-15T03:31:29.815Z,102645.77
2019-02-15T03:34:03.371Z,102642.06
2019-02-15T03:36:48.313Z,102649.38
2019-02-15T03:39:32.626Z,102651.25
2019-02-15T03:42:06.874Z,102647.59
2019-02-15T03:44:43.838Z,102646.54
2019-02-15T03:47:21.458Z,102648.61
2019-02-15T03:49:58.620Z,102647.89
2019-02-15T03:52:29.720Z,102646.59
2019-02-15T03:55:00.398Z,102637.80
2019-02-15T03:57:30.697Z,102639.18
2019-02-15T04:00:02.963Z,102643.13
2019-02-15T04:02:38.203Z,102643.16
2019-02-15T04:05:11.885Z,102648.14
2019-02-15T04:07:42.415Z,102656.11
2019-02-15T04:10:14.533Z,102652.01
2019-02-15T04:12:44.857Z,102647.16
2019-02-15T04:15:13.937Z,102649.99
2019-02-15T04:17:48.289Z,102651.50
2019-02-15T04:20:20.395Z,102653.56
2019-02-15T04:22:51.044Z,102652.08
2019-02-15T04:25:20.007Z,102662.98
2019-02-15T04:27:59.435Z,102663.76
2019-02-15T04:30:39.186Z,102668.27
2019-02-15T04:33:22.969Z,102665.09
2019-02-15T04:35:58.295Z,102671.30
2019-02-15T04:38:54.923Z,102660.97
2019-02-15T04:41:33.563Z,102659.05
2019-02-15T04:44:17.731Z,102656.11
2019-02-15T04:46:58.335Z,102654.70
2019-02-15T04:49:31.837Z,102654.02
2019-02-15T04:52:02.540Z,102652.03
2019-02-15T04:54:31.111Z,102656.22
2019-02-15T04:57:01.908Z,102652.86
2019-02-15T04:59:33.832Z,102658.46
2019-02-15T05:02:03.891Z,102651.31
2019-02-15T05:04:39.189Z,102658.07
2019-02-15T05:07:10.540Z,102649.86
2019-02-15T05:09:41.963Z,102649.09
2019-02-15T05:12:17.310Z,102658.63
2019-02-15T05:14:53.150Z,102658.39
2019-02-15T05:17:22.023Z,102652.88
2019-02-15T05:19:52.927Z,102653.70
2019-02-15T05:22:25.210Z,102660.22
2019-02-15T05:24:55.854Z,102652.48
2019-02-15T05:27:26.377Z,102653.52
2019-02-15T05:29:59.889Z,102651.92
2019-02-15T05:32:32.270Z,102650.58
2019-02-15T05:35:03.240Z,102641.33
2019-02-15T05:37:32.603Z,102642.58
2019-02-15T05:40:05.480Z,102642.63
2019-02-15T05:42:37.492Z,102641.86
2019-02-15T05:45:07.897Z,102638.39
2019-02-15T05:47:38.379Z,102639.69
2019-02-15T05:50:11.730Z,102641.70
2019-02-15T05:52:40.831Z,102642.09
2019-02-15T05:55:16.504Z,102642.02
2019-02-15T05:57:47.356Z,102646.16
2019-02-15T06:00:19.644Z,102648.18
2019-02-15T06:02:52.258Z,102652.06
2019-02-15T06:05:23.298Z,102644.81
2019-02-15T06:07:54.170Z,102647.59
2019-02-15T06:10:24.530Z,102649.95
2019-02-15T06:12:56.906Z,102643.66
2019-02-15T06:15:28.238Z,102648.18
2019-02-15T06:17:58.941Z,102645.28
2019-02-15T06:20:32.789Z,102650.91
2019-02-15T06:23:01.690Z,102651.16
2019-02-15T06:25:32.461Z,102651.73
2019-02-15T06:28:06.115Z,102655.53
2019-02-15T06:30:39.314Z,102647.16
2019-02-15T06:33:09.745Z,102656.53
2019-02-15T06:35:45.878Z,102662.92
2019-02-15T06:38:17.695Z,102660.14
2019-02-15T06:40:48.562Z,102657.23
2019-02-15T06:43:20.948Z,102658.52
2019-02-15T06:45:52.573Z,102661.64
2019-02-15T06:48:22.881Z,102662.83
2019-02-15T06:50:54.851Z,102657.11
2019-02-15T06:53:30.021Z,102664.42
2019-02-15T06:55:58.610Z,102671.48
2019-02-15T06:58:27.619Z,102670.31
2019-02-15T07:01:23.279Z,102671.51
2019-02-15T07:04:07.308Z,102675.65
2019-02-15T07:06:40.199Z,102675.38
2019-02-15T07:09:15.267Z,102676.75
2019-02-15T07:11:46.220Z,102678.79
2019-02-15T07:14:15.478Z,102677.85
2019-02-15T07:16:49.927Z,102681.22
2019-02-15T07:19:25.727Z,102677.14
2019-02-15T07:21:58.751Z,102679.02
2019-02-15T07:24:34.229Z,102679.73
2019-02-15T07:27:07.471Z,102677.13
2019-02-15T07:29:41.687Z,102674.50
2019-02-15T07:32:15.446Z,102672.33
2019-02-15T07:34:47.441Z,102662.47
2019-02-15T07:37:22.790Z,102664.63
2019-02-15T07:39:52.868Z,102670.16
2019-02-15T07:42:21.704Z,102669.33
2019-02-15T07:44:56.725Z,102655.58
2019-02-15T07:47:26.964Z,102674.95
2019-02-15T07:50:02.194Z,102667.29
2019-02-15T07:52:32.436Z,102669.78
2019-02-15T07:55:01.526Z,102671.81
2019-02-15T07:57:35.424Z,102679.02
2019-02-15T08:00:04.926Z,102669.72
2019-02-15T08:02:33.832Z,102666.78
2019-02-15T08:05:07.133Z,102668.66
2019-02-15T08:07:41.569Z,102658.80
2019-02-15T08:10:13.604Z,102660.91
2019-02-15T08:12:42.813Z,102664.36
2019-02-15T08:15:11.577Z,102660.95
2019-02-15T08:17:42.049Z,102664.80
2019-02-15T08:20:15.096Z,102667.04
2019-02-15T08:22:48.647Z,102659.89
2019-02-15T08:25:20.778Z,102658.28
2019-02-15T08:27:50.915Z,102655.53
2019-02-15T08:30:22.927Z,102657.95
2019-02-15T08:32:51.984Z,102659.08
2019-02-15T08:35:24.320Z,102659.77
2019-02-15T08:37:56.866Z,102658.09
2019-02-15T08:40:28.664Z,102654.30
2019-02-15T08:42:57.959Z,102650.64
2019-02-15T08:45:27.040Z,102651.34
2019-02-15T08:47:59.836Z,102659.95
2019-02-15T08:50:30.087Z,102658.16
2019-02-15T08:53:05.338Z,102658.16
2019-02-15T08:55:35.272Z,102657.61
2019-02-15T08:58:04.251Z,102653.95
2019-02-15T09:00:37.810Z,102656.72
2019-02-15T09:03:10.124Z,102656.34
2019-02-15T09:05:46.231Z,102659.97
2019-02-15T09:08:14.829Z,102651.00
2019-02-15T09:10:43.572Z,102656.05
2019-02-15T09:13:12.454Z,102658.77
2019-02-15T09:15:44.991Z,102653.66
2019-02-15T09:18:18.099Z,102658.95
2019-02-15T09:20:50.144Z,102651.70
2019-02-15T09:23:20.813Z,102654.81
2019-02-15T09:25:52.786Z,102655.94
2019-02-15T09:28:29.277Z,102652.33
2019-02-15T09:30:59.144Z,102656.89
2019-02-15T09:33:29.905Z,102656.95
2019-02-15T09:35:58.466Z,102653.98
2019-02-15T09:38:30.735Z,102639.23
2019-02-15T09:41:01.374Z,102648.22
2019-02-15T09:43:30.371Z,102634.72
2019-02-15T09:46:19.500Z,102639.61
2019-02-15T09:48:43.064Z,102631.96
2019-02-15T09:51:12.284Z,102634.30
2019-02-15T09:53:46.200Z,102627.38
2019-02-15T09:56:20.925Z,102621.38
2019-02-15T09:58:51.312Z,102620.59
2019-02-15T10:01:26.166Z,102625.06
2019-02-15T10:03:57.018Z,102627.81
2019-02-15T10:06:28.765Z,102616.06
2019-02-15T10:09:01.689Z,102621.33
2019-02-15T10:11:30.415Z,102620.05
2019-02-15T10:13:59.334Z,102610.55
2019-02-15T10:16:32.833Z,102608.89
2019-02-15T10:19:06.200Z,102608.09
2019-02-15T10:21:36.482Z,102597.62
2019-02-15T10:24:05.583Z,102610.38
2019-02-15T10:26:34.122Z,102606.94
2019-02-15T10:29:06.527Z,102605.22
2019-02-15T10:31:38.207Z,102605.25
2019-02-15T10:34:09.234Z,102611.42
2019-02-15T10:36:40.204Z,102597.86
2019-02-15T10:39:12.429Z,102600.94
2019-02-15T10:41:41.610Z,102604.90
2019-02-15T10:44:14.297Z,102601.42
2019-02-15T10:46:44.672Z,102592.19
2019-02-15T10:49:19.014Z,102593.92
2019-02-15T10:51:47.565Z,102587.75
2019-02-15T10:54:19.755Z,102589.48
2019-02-15T10:56:48.294Z,102579.77
2019-02-15T10:59:19.419Z,102575.30
2019-02-15T11:01:48.124Z,102573.95
2019-02-15T11:04:19.941Z,102561.59
2019-02-15T11:06:55.675Z,102559.77
2019-02-15T11:09:26.131Z,102557.39
2019-02-15T11:11:59.330Z,102549.63
2019-02-15T11:14:27.894Z,102556.59
2019-02-15T11:16:57.012Z,102543.76
2019-02-15T11:19:29.900Z,102543.76
2019-02-15T11:21:59.962Z,102544.38
2019-02-15T11:24:28.921Z,102533.77
2019-02-15T11:26:58.019Z,102533.24
2019-02-15T11:29:32.660Z,102534.06
2019-02-15T11:32:04.808Z,102523.66
2019-02-15T11:34:37.108Z,102520.73
2019-02-15T11:37:08.915Z,102507.16
2019-02-15T11:39:42.319Z,102509.89
2019-02-15T11:42:13.390Z,102509.52
2019-02-15T11:44:43.320Z,102502.65
2019-02-15T11:47:11.865Z,102508.66
2019-02-15T11:49:47.181Z,102497.87
2019-02-15T11:52:15.732Z,102498.47
2019-02-15T11:54:47.788Z,102499.34
2019-02-15T11:57:21.249Z,102491.75
2019-02-15T11:59:53.332Z,102492.95
2019-02-15T12:02:27.171Z,102488.30
2019-02-15T12:04:57.623Z,102485.08
2019-02-15T12:07:26.476Z,102483.52
2019-02-15T12:10:00.764Z,102476.79
2019-02-15T12:12:32.853Z,102472.14
2019-02-15T12:15:07.873Z,102467.66
2019-02-15T12:17:39.767Z,102470.67
2019-02-15T12:20:12.262Z,102468.80
2019-02-15T12:22:46.195Z,102465.11
2019-02-15T12:25:20.199Z,102461.70
2019-02-15T12:27:52.122Z,102467.77
2019-02-15T12:30:40.189Z,102464.67
2019-02-15T12:33:10.580Z,102460.58
2019-02-15T12:35:39.305Z,102461.84
2019-02-15T12:38:12.948Z,102458.13
2019-02-15T12:40:42.664Z,102456.19
2019-02-15T12:43:11.591Z,102445.52
2019-02-15T12:45:49.674Z,102438.45
2019-02-15T12:48:20.491Z,102437.86
2019-02-15T12:50:52.484Z,102440.99
2019-02-15T12:53:25.147Z,102431.84
2019-02-15T12:55:57.840Z,102426.45
2019-02-15T12:58:29.968Z,102425.77
2019-02-15T13:01:02.090Z,102424.74
2019-02-15T13:03:30.994Z,102424.74
2019-02-15T13:06:00.289Z,102424.45
2019-02-15T13:08:33.298Z,102418.28
2019-02-15T13:11:03.449Z,102417.81
2019-02-15T13:13:37.076Z,102416.81
2019-02-15T13:16:11.721Z,102413.68
2019-02-15T13:18:43.834Z,102408.36
2019-02-15T13:21:16.711Z,102400.55
2019-02-15T13:23:47.712Z,102392.53
2019-02-15T13:26:24.855Z,102390.27
2019-02-15T13:28:57.008Z,102385.75
2019-02-15T13:31:26.350Z,102384.84
2019-02-15T13:33:57.261Z,102381.14
2019-02-15T13:36:27.958Z,102366.95
2019-02-15T13:39:00.417Z,102368.56
2019-02-15T13:41:33.015Z,102360.59
2019-02-15T13:44:04.789Z,102363.25
2019-02-15T13:46:35.595Z,102360.30
2019-02-15T13:49:06.421Z,102352.93
2019-02-15T13:51:38.815Z,102350.17
2019-02-15T13:54:14.012Z,102344.91
2019-02-15T13:56:47.653Z,102344.57
2019-02-15T13:59:19.585Z,102337.83
2019-02-15T14:01:53.359Z,102329.82
2019-02-15T14:04:22.909Z,102327.65
2019-02-15T14:06:58.849Z,102280.98
2019-02-15T14:09:29.613Z,102326.41
2019-02-15T14:11:58.826Z,102325.77
2019-02-15T14:14:29.623Z,102317.83
2019-02-15T14:16:58.777Z,102319.69
2019-02-15T14:19:33.735Z,102315.34
2019-02-15T14:22:04.220Z,102315.56
2019-02-15T14:24:39.136Z,102310.25
2019-02-15T14:27:08.284Z,102305.88
2019-02-15T14:29:40.718Z,102308.27
2019-02-15T14:32:14.831Z,102306.09
2019-02-15T14:34:48.713Z,102309.13
2019-02-15T14:37:19.446Z,102302.53
2019-02-15T14:39:53.332Z,102300.36
2019-02-15T14:42:28.687Z,102299.87
2019-02-15T14:45:08.875Z,102298.75
2019-02-15T14:47:40.005Z,102287.72
2019-02-15T14:50:15.773Z,102293.36
2019-02-15T14:52:49.060Z,102288.48
2019-02-15T14:55:21.940Z,102288.53
2019-02-15T14:57:54.240Z,102285.06
2019-02-15T15:00:29.794Z,102281.70
2019-02-15T15:03:04.420Z,102281.05
2019-02-15T15:05:41.986Z,102276.97
2019-02-15T15:08:15.235Z,102274.73
2019-02-15T15:10:44.539Z,102273.30
2019-02-15T15:13:41.654Z,102265.91
2019-02-15T15:16:14.354Z,102263.83
2019-02-15T15:18:45.022Z,102260.36
2019-02-15T15:21:27.908Z,102256.95
2019-02-15T15:23:58.863Z,102252.83
2019-02-15T15:26:33.347Z,102248.62
2019-02-15T15:29:05.609Z,102247.63
2019-02-15T15:31:34.899Z,102241.70
2019-02-15T15:34:04.586Z,102241.54
2019-02-15T15:36:34.968Z,102237.41
2019-02-15T15:39:07.057Z,102228.48
2019-02-15T15:41:36.295Z,102227.38
2019-02-15T15:44:07.091Z,102225.82
2019-02-15T15:46:40.787Z,102227.45
2019-02-15T15:49:12.096Z,102228.49
2019-02-15T15:51:43.090Z,102223.45
2019-02-15T15:54:17.740Z,102214.75
2019-02-15T15:56:50.789Z,102220.78
2019-02-15T15:59:20.257Z,102221.09
2019-02-15T16:01:50.835Z,102227.11
2019-02-15T16:04:19.381Z,102216.59
2019-02-15T16:06:52.717Z,102216.58
2019-02-15T16:09:21.437Z,102213.95
2019-02-15T16:11:50.659Z,102218.28
2019-02-15T16:14:23.927Z,102211.58
2019-02-15T16:16:57.847Z,102212.13
2019-02-15T16:19:28.179Z,102214.84
2019-02-15T16:21:58.734Z,102219.70
2019-02-15T16:24:31.073Z,102221.30
2019-02-15T16:26:59.648Z,102219.30
2019-02-15T16:29:28.473Z,102217.31
2019-02-15T16:32:00.038Z,102215.84
2019-02-15T16:34:31.233Z,102215.75
2019-02-15T16:37:03.012Z,102218.64
2019-02-15T16:39:33.400Z,102212.24
2019-02-15T16:42:04.546Z,102212.39
2019-02-15T16:44:36.344Z,102215.69
2019-02-15T16:47:05.431Z,102207.91
2019-02-15T16:49:39.735Z,102214.98
2019-02-15T16:52:12.044Z,102221.38
2019-02-15T16:54:43.882Z,102221.38
2019-02-15T16:57:16.177Z,102221.55
2019-02-15T16:59:46.299Z,102221.55
2019-02-15T17:02:18.139Z,102220.26
2019-02-15T17:04:46.994Z,102219.50
2019-02-15T17:07:15.911Z,102213.91
2019-02-15T17:09:44.806Z,102216.98
2019-02-15T17:12:18.925Z,102211.73
2019-02-15T17:14:50.007Z,102211.31
2019-02-15T17:17:24.344Z,102213.99
2019-02-15T17:19:54.474Z,102215.78
2019-02-15T17:22:25.421Z,102214.92
2019-02-15T17:24:54.380Z,102207.06
2019-02-15T17:27:26.230Z,102209.72
2019-02-15T17:29:58.176Z,102214.11
2019-02-15T17:32:28.989Z,102211.06
2019-02-15T17:35:02.295Z,102201.88
2019-02-15T17:37:34.493Z,102201.01
2019-02-15T17:40:05.678Z,102204.53
2019-02-15T17:42:36.310Z,102202.34
2019-02-15T17:45:09.220Z,102201.89
2019-02-15T17:47:39.730Z,102207.61
2019-02-15T17:50:12.216Z,102215.02
2019-02-15T17:52:42.754Z,102208.00
2019-02-15T17:55:11.927Z,102204.48
2019-02-15T17:57:42.785Z,102203.20
2019-02-15T18:00:11.732Z,102203.60
2019-02-15T18:02:43.786Z,102201.00
2019-02-15T18:05:17.494Z,102197.06
2019-02-15T18:07:48.815Z,102200.08
2019-02-15T18:10:19.384Z,102194.39
2019-02-15T18:12:52.890Z,102195.26
2019-02-15T18:15:23.358Z,102197.85
2019-02-15T18:17:55.990Z,102195.64
2019-02-15T18:20:32.131Z,102193.88
2019-02-15T18:23:02.073Z,102196.54
2019-02-15T18:25:37.339Z,102198.30
2019-02-15T18:28:09.309Z,102196.56
2019-02-15T18:30:47.322Z,102190.47
2019-02-15T18:33:19.824Z,102192.66
2019-02-15T18:35:52.030Z,102184.75
2019-02-15T18:38:21.172Z,102189.08
2019-02-15T18:40:51.589Z,102189.91
2019-02-15T18:43:20.186Z,102188.55
2019-02-15T18:45:48.918Z,102186.36
2019-02-15T18:48:40.313Z,102185.00
2019-02-15T18:51:09.116Z,102190.60
2019-02-15T18:53:42.790Z,102185.75
2019-02-15T18:56:11.041Z,102188.76
2019-02-15T18:58:44.211Z,102190.45
2019-02-15T19:01:23.159Z,102183.91
2019-02-15T19:03:55.093Z,102177.28
2019-02-15T19:06:27.915Z,102179.50
2019-02-15T19:08:57.040Z,102175.50
2019-02-15T19:11:26.069Z,102178.48
2019-02-15T19:14:02.716Z,102173.16
2019-02-15T19:16:35.240Z,102172.69
2019-02-15T19:19:09.173Z,102171.36
2019-02-15T19:21:37.957Z,102169.00
2019-02-15T19:24:06.558Z,102171.45
2019-02-15T19:26:39.944Z,102164.38
2019-02-15T19:29:10.895Z,102160.87
2019-02-15T19:31:46.136Z,102154.78
2019-02-15T19:34:15.375Z,102152.05
2019-02-15T19:36:48.619Z,102155.00
2019-02-15T19:39:22.751Z,102158.41
2019-02-15T19:41:55.113Z,102148.80
2019-02-15T19:44:26.794Z,102145.66
2019-02-15T19:46:59.952Z,102145.23
2019-02-15T19:49:38.235Z,102146.52
2019-02-15T19:52:04.835Z,102145.13
2019-02-15T19:54:35.772Z,102138.87
2019-02-15T19:57:09.391Z,102142.20
2019-02-15T19:59:53.361Z,102140.04
2019-02-15T20:02:15.542Z,102135.59
2019-02-15T20:04:44.658Z,102133.80
2019-02-15T20:07:14.614Z,102133.78
2019-02-15T20:09:43.379Z,102131.20
2019-02-15T20:12:15.868Z,102132.05
2019-02-15T20:14:47.242Z,102131.50
2019-02-15T20:17:18.223Z,102129.78
2019-02-15T20:19:51.063Z,102132.05
2019-02-15T20:22:21.634Z,102130.76
2019-02-15T20:25:01.566Z,102132.84
2019-02-15T20:27:38.255Z,102128.89
2019-02-15T20:30:17.329Z,102130.63
2019-02-15T20:32:51.434Z,102129.27
2019-02-15T20:35:21.882Z,102136.95
2019-02-15T20:37:50.810Z,102138.22
2019-02-15T20:40:20.882Z,102123.73
2019-02-15T20:42:52.687Z,102132.36
2019-02-15T20:45:22.030Z,102124.91
2019-02-15T20:47:52.530Z,102124.52
2019-02-15T20:50:22.821Z,102114.39
2019-02-15T20:52:58.151Z,102118.78
2019-02-15T20:55:32.645Z,102124.80
2019-02-15T20:58:04.572Z,102121.80
2019-02-15T21:00:38.282Z,102117.53
2019-02-15T21:03:14.364Z,102121.87
2019-02-15T21:05:45.602Z,102123.07
2019-02-15T21:08:17.661Z,102118.25
2019-02-15T21:10:55.088Z,102110.41
2019-02-15T21:13:28.743Z,102107.66
2019-02-15T21:15:58.871Z,102111.16
2019-02-15T21:18:28.936Z,102112.45
2019-02-15T21:20:59.696Z,102107.22
2019-02-15T21:23:48.456Z,102109.34
2019-02-15T21:26:18.808Z,102103.70
2019-02-15T21:28:50.477Z,102108.78
2019-02-15T21:31:21.591Z,102109.09
2019-02-15T21:33:53.896Z,102103.91
2019-02-15T21:36:26.468Z,102109.13
2019-02-15T21:38:55.365Z,102108.95
2019-02-15T21:41:33.980Z,102108.48
2019-02-15T21:44:06.046Z,102109.97
2019-02-15T21:46:34.991Z,102111.67
2019-02-15T21:49:05.697Z,102106.08
2019-02-15T21:51:35.109Z,102103.06
2019-02-15T21:54:07.637Z,102105.67
2019-02-15T21:56:43.187Z,102095.55
2019-02-15T21:59:15.591Z,102092.44
2019-02-15T22:01:52.601Z,102085.72
2019-02-15T22:04:23.874Z,102079.97
2019-02-15T22:06:56.271Z,102084.36
2019-02-15T22:09:31.328Z,102078.16
2019-02-15T22:12:03.527Z,102081.09
2019-02-15T22:14:37.688Z,102082.96
2019-02-15T22:17:09.909Z,102080.05
2019-02-15T22:19:40.141Z,102070.22
2019-02-15T22:22:11.953Z,102074.16
2019-02-15T22:24:40.907Z,102065.41
2019-02-15T22:27:15.058Z,102067.17
2019-02-15T22:29:45.705Z,102060.70
2019-02-15T22:32:14.758Z,102068.01
2019-02-15T22:34:46.515Z,102059.67
2019-02-15T22:37:22.063Z,102056.08
2019-02-15T22:39:55.265Z,102061.70
2019-02-15T22:42:24.482Z,102060.16
2019-02-15T22:44:53.951Z,102053.92
2019-02-15T22:47:24.379Z,102053.95
2019-02-15T22:49:55.188Z,102049.69
2019-02-15T22:52:26.212Z,102054.91
2019-02-15T22:54:58.257Z,102049.66
2019-02-15T22:57:28.962Z,102051.16
2019-02-15T23:00:12.640Z,102045.03
2019-02-15T23:02:36.186Z,102047.11
2019-02-15T23:05:04.782Z,102043.45
2019-02-15T23:07:38.588Z,102045.55
2019-02-15T23:10:11.544Z,102039.75
2019-02-15T23:12:40.659Z,102041.59
2019-02-15T23:15:09.221Z,102041.25
2019-02-15T23:17:38.156Z,102037.72
2019-02-15T23:20:11.749Z,102035.84
2019-02-15T23:22:45.200Z,102030.37
2019-02-15T23:25:16.099Z,102022.09
2019-02-15T23:27:46.740Z,102028.45
2019-02-15T23:30:15.681Z,102029.03
2019-02-15T23:32:44.796Z,102030.53
2019-02-15T23:35:13.339Z,102036.82
2019-02-15T23:37:46.369Z,102026.50
2019-02-15T23:40:15.254Z,102019.16
2019-02-15T23:42:44.208Z,102019.89
2019-02-15T23:45:17.705Z,102022.46
2019-02-15T23:47:45.520Z,102027.49
2019-02-15T23:50:16.347Z,102024.55
2019-02-15T23:52:45.597Z,102028.32
2019-02-15T23:55:18.344Z,102018.22
2019-02-15T23:57:50.200Z,102017.27
